createdAt,value
2017-05-03T00:00:26.444Z,11.14
2017-05-03T00:01:07.324Z,11.1
2017-05-03T00:01:48.207Z,11.12
2017-05-03T00:02:29.097Z,11.11
2017-05-03T00:03:09.974Z,11.17
2017-05-03T00:03:50.832Z,11.23
2017-05-03T00:04:31.702Z,11.22
2017-05-03T00:05:12.578Z,11.18
2017-05-03T00:05:53.455Z,11.22
2017-05-03T00:06:34.356Z,11.15
2017-05-03T00:07:15.234Z,11.19
2017-05-03T00:07:56.106Z,11.15
2017-05-03T00:08:36.978Z,11.08
2017-05-03T00:09:17.846Z,11.12
2017-05-03T00:09:58.733Z,11.1
2017-05-03T00:10:39.622Z,11.1
2017-05-03T00:11:20.510Z,11.1
2017-05-03T00:12:01.363Z,11.08
2017-05-03T00:12:42.232Z,11.14
2017-05-03T00:13:23.076Z,11.18
2017-05-03T00:14:03.950Z,11.18
2017-05-03T00:14:44.767Z,11.1
2017-05-03T00:15:25.656Z,11.12
2017-05-03T00:16:06.521Z,11.15
2017-05-03T00:16:47.362Z,11.19
2017-05-03T00:17:28.219Z,11.18
2017-05-03T00:18:09.089Z,11.12
2017-05-03T00:18:49.970Z,11.15
2017-05-03T00:19:30.846Z,11.19
2017-05-03T00:20:11.715Z,11.25
2017-05-03T00:20:52.593Z,11.17
2017-05-03T00:21:33.468Z,11.22
2017-05-03T00:22:14.341Z,11.17
2017-05-03T00:22:55.226Z,11.22
2017-05-03T00:23:36.106Z,11.15
2017-05-03T00:24:16.985Z,11.23
2017-05-03T00:24:57.858Z,11.25
2017-05-03T00:25:38.733Z,11.11
2017-05-03T00:26:19.621Z,11.08
2017-05-03T00:27:00.513Z,11.1
2017-05-03T00:27:41.389Z,11.05
2017-05-03T00:28:22.259Z,11.1
2017-05-03T00:29:03.147Z,11.05
2017-05-03T00:29:44.032Z,11.05
2017-05-03T00:30:24.908Z,11.11
2017-05-03T00:31:05.779Z,11.11
2017-05-03T00:31:46.678Z,11.08
2017-05-03T00:32:27.512Z,11.23
2017-05-03T00:33:08.376Z,11.08
2017-05-03T00:33:49.255Z,11.05
2017-05-03T00:34:30.185Z,11.11
2017-05-03T00:35:11.030Z,11.08
2017-05-03T00:35:51.913Z,11.07
2017-05-03T00:36:32.801Z,11.08
2017-05-03T00:37:13.696Z,11.18
2017-05-03T00:37:54.567Z,11.08
2017-05-03T00:38:35.431Z,11.15
2017-05-03T00:39:16.326Z,11.11
2017-05-03T00:39:57.205Z,11.05
2017-05-03T00:40:38.097Z,10.94
2017-05-03T00:41:18.951Z,10.99
2017-05-03T00:41:59.826Z,11
2017-05-03T00:42:40.720Z,11.05
2017-05-03T00:43:21.614Z,11
2017-05-03T00:44:02.483Z,11.08
2017-05-03T00:44:43.361Z,10.99
2017-05-03T00:45:24.256Z,11.08
2017-05-03T00:46:05.142Z,11
2017-05-03T00:46:46.001Z,10.99
2017-05-03T00:47:26.871Z,11
2017-05-03T00:48:07.748Z,11
2017-05-03T00:48:48.639Z,10.96
2017-05-03T00:49:29.534Z,10.97
2017-05-03T00:50:10.415Z,10.97
2017-05-03T00:50:51.287Z,11
2017-05-03T00:51:32.175Z,10.99
2017-05-03T00:52:13.081Z,11.04
2017-05-03T00:52:53.958Z,10.94
2017-05-03T00:53:34.843Z,10.99
2017-05-03T00:54:15.723Z,11.02
2017-05-03T00:54:56.645Z,10.97
2017-05-03T00:55:37.514Z,10.96
2017-05-03T00:56:18.408Z,10.93
2017-05-03T00:56:59.297Z,10.92
2017-05-03T00:58:27.377Z,10.96
2017-05-03T00:59:08.258Z,10.97
2017-05-03T00:59:49.144Z,10.99
2017-05-03T01:00:30.033Z,10.97
2017-05-03T01:01:10.999Z,10.93
2017-05-03T01:01:51.853Z,10.94
2017-05-03T01:02:32.735Z,10.96
2017-05-03T01:03:13.612Z,10.94
2017-05-03T01:03:54.493Z,10.97
2017-05-03T01:04:35.392Z,10.99
2017-05-03T01:05:16.240Z,11.02
2017-05-03T01:05:57.120Z,10.99
2017-05-03T01:06:38.009Z,11.08
2017-05-03T01:07:18.896Z,11.05
2017-05-03T01:07:59.778Z,10.97
2017-05-03T01:08:40.656Z,11.07
2017-05-03T01:09:21.549Z,11.1
2017-05-03T01:10:02.431Z,11.04
2017-05-03T01:10:43.311Z,11.04
2017-05-03T01:11:24.189Z,10.99
2017-05-03T01:12:05.071Z,10.99
2017-05-03T01:12:45.962Z,10.99
2017-05-03T01:13:26.847Z,10.94
2017-05-03T01:14:07.723Z,10.97
2017-05-03T01:14:48.612Z,10.89
2017-05-03T01:15:29.488Z,10.94
2017-05-03T01:16:10.390Z,10.93
2017-05-03T01:16:51.260Z,10.97
2017-05-03T01:17:32.135Z,10.97
2017-05-03T01:18:13.047Z,10.94
2017-05-03T01:18:53.932Z,10.97
2017-05-03T01:19:34.815Z,11.05
2017-05-03T01:20:15.695Z,11.05
2017-05-03T01:20:56.593Z,11
2017-05-03T01:21:37.442Z,10.89
2017-05-03T01:22:18.323Z,10.94
2017-05-03T01:22:59.209Z,10.97
2017-05-03T01:23:40.096Z,10.97
2017-05-03T01:24:20.973Z,10.97
2017-05-03T01:25:01.847Z,10.89
2017-05-03T01:25:42.725Z,10.99
2017-05-03T01:26:23.608Z,10.94
2017-05-03T01:27:04.475Z,10.97
2017-05-03T01:27:45.370Z,11
2017-05-03T01:28:26.237Z,10.97
2017-05-03T01:29:07.123Z,11
2017-05-03T01:29:48.001Z,10.99
2017-05-03T01:30:28.884Z,11.02
2017-05-03T01:31:09.744Z,10.97
2017-05-03T01:31:50.626Z,11.07
2017-05-03T01:32:31.479Z,11.08
2017-05-03T01:33:12.344Z,11.1
2017-05-03T01:33:53.214Z,11.07
2017-05-03T01:34:34.065Z,10.94
2017-05-03T01:35:14.920Z,10.97
2017-05-03T01:35:55.777Z,10.96
2017-05-03T01:36:36.638Z,11.02
2017-05-03T01:37:17.494Z,10.94
2017-05-03T01:37:58.362Z,10.99
2017-05-03T01:38:39.240Z,10.9
2017-05-03T01:39:20.089Z,10.93
2017-05-03T01:40:00.980Z,11.02
2017-05-03T01:40:41.850Z,11.08
2017-05-03T01:41:22.713Z,11.02
2017-05-03T01:42:03.569Z,11.04
2017-05-03T01:42:44.427Z,11.19
2017-05-03T01:43:25.303Z,11.05
2017-05-03T01:44:06.167Z,11.05
2017-05-03T01:44:47.039Z,11.07
2017-05-03T01:45:27.904Z,11.04
2017-05-03T01:46:08.775Z,11.02
2017-05-03T01:46:49.650Z,11.11
2017-05-03T01:47:30.525Z,11.05
2017-05-03T01:48:11.387Z,11.08
2017-05-03T01:48:52.274Z,11.14
2017-05-03T01:49:33.130Z,11.12
2017-05-03T01:50:13.990Z,11.18
2017-05-03T01:50:54.849Z,11.1
2017-05-03T01:51:35.718Z,11.08
2017-05-03T01:52:16.591Z,11.11
2017-05-03T01:52:57.470Z,11.11
2017-05-03T01:53:38.345Z,11.1
2017-05-03T01:54:19.241Z,11.1
2017-05-03T01:55:00.117Z,11.1
2017-05-03T01:55:40.997Z,11.17
2017-05-03T01:56:21.891Z,11.17
2017-05-03T01:57:02.763Z,11.04
2017-05-03T01:57:43.640Z,11.11
2017-05-03T01:58:24.516Z,11.19
2017-05-03T01:59:05.401Z,11.08
2017-05-03T01:59:46.272Z,11.1
2017-05-03T02:00:27.181Z,11.12
2017-05-03T02:01:08.067Z,11.12
2017-05-03T02:01:48.937Z,11.14
2017-05-03T02:02:29.814Z,11.08
2017-05-03T02:03:10.686Z,11.08
2017-05-03T02:03:51.553Z,11.12
2017-05-03T02:04:32.430Z,11.1
2017-05-03T02:05:13.315Z,11.19
2017-05-03T02:05:54.189Z,11.07
2017-05-03T02:06:35.045Z,11.17
2017-05-03T02:07:15.918Z,11.04
2017-05-03T02:07:56.768Z,11.12
2017-05-03T02:08:37.633Z,11.07
2017-05-03T02:09:18.496Z,11.07
2017-05-03T02:09:59.353Z,11.14
2017-05-03T02:10:40.220Z,11.1
2017-05-03T02:11:21.142Z,11.07
2017-05-03T02:12:02.012Z,11.11
2017-05-03T02:12:42.870Z,11.1
2017-05-03T02:13:23.753Z,11.1
2017-05-03T02:14:04.618Z,11.1
2017-05-03T02:14:45.483Z,11.07
2017-05-03T02:15:26.367Z,11.04
2017-05-03T02:16:07.233Z,11.1
2017-05-03T02:16:48.106Z,11.17
2017-05-03T02:17:28.988Z,11
2017-05-03T02:18:09.878Z,11.1
2017-05-03T02:18:50.736Z,11.08
2017-05-03T02:19:31.617Z,11.11
2017-05-03T02:20:12.491Z,11
2017-05-03T02:20:53.355Z,11.23
2017-05-03T02:21:34.231Z,11.12
2017-05-03T02:22:15.097Z,11.08
2017-05-03T02:22:55.982Z,11.08
2017-05-03T02:23:36.875Z,11.08
2017-05-03T02:24:17.730Z,11.11
2017-05-03T02:24:58.610Z,11.08
2017-05-03T02:25:39.503Z,11.07
2017-05-03T02:26:20.338Z,11.08
2017-05-03T02:27:01.239Z,11.14
2017-05-03T02:27:42.113Z,11.11
2017-05-03T02:28:22.982Z,11.1
2017-05-03T02:29:03.864Z,11.12
2017-05-03T02:29:44.734Z,11.14
2017-05-03T02:30:25.580Z,11.18
2017-05-03T02:31:06.464Z,11.14
2017-05-03T02:31:47.338Z,10.99
2017-05-03T02:32:28.220Z,11.05
2017-05-03T02:33:09.091Z,11.1
2017-05-03T02:33:49.964Z,11.12
2017-05-03T02:34:30.836Z,11.04
2017-05-03T02:35:11.720Z,11.12
2017-05-03T02:35:52.611Z,11.05
2017-05-03T02:36:33.482Z,11.04
2017-05-03T02:37:14.357Z,11.08
2017-05-03T02:37:55.238Z,11.17
2017-05-03T02:38:36.119Z,11.07
2017-05-03T02:39:17.008Z,11.08
2017-05-03T02:39:57.887Z,11.11
2017-05-03T02:40:38.754Z,11.1
2017-05-03T02:41:19.638Z,11.12
2017-05-03T02:42:00.505Z,11.08
2017-05-03T02:42:41.387Z,11.18
2017-05-03T02:43:22.270Z,11.11
2017-05-03T02:44:03.146Z,11.08
2017-05-03T02:44:44.014Z,11.18
2017-05-03T02:45:24.902Z,11.19
2017-05-03T02:46:05.794Z,11.23
2017-05-03T02:46:46.655Z,11.14
2017-05-03T02:47:27.529Z,11.22
2017-05-03T02:48:08.402Z,11.22
2017-05-03T02:48:49.307Z,11.18
2017-05-03T02:49:30.203Z,11.25
2017-05-03T02:50:11.087Z,11.23
2017-05-03T02:50:51.960Z,11.22
2017-05-03T02:51:32.840Z,11.26
2017-05-03T02:52:13.720Z,11.22
2017-05-03T02:52:54.602Z,11.19
2017-05-03T02:53:35.482Z,11.17
2017-05-03T02:54:16.363Z,11.29
2017-05-03T02:54:57.258Z,11.32
2017-05-03T02:55:38.131Z,11.08
2017-05-03T02:56:19.020Z,11.12
2017-05-03T02:56:59.896Z,11.02
2017-05-03T02:57:40.780Z,11.04
2017-05-03T02:58:21.650Z,10.96
2017-05-03T02:59:02.531Z,11.05
2017-05-03T02:59:43.407Z,10.97
2017-05-03T03:00:24.288Z,10.97
2017-05-03T03:01:05.200Z,10.94
2017-05-03T03:01:46.050Z,10.96
2017-05-03T03:02:26.913Z,11
2017-05-03T03:03:07.787Z,10.93
2017-05-03T03:03:48.665Z,10.94
2017-05-03T03:04:29.541Z,10.87
2017-05-03T03:05:10.430Z,10.96
2017-05-03T03:05:51.299Z,10.96
2017-05-03T03:06:32.164Z,10.97
2017-05-03T03:07:13.046Z,10.97
2017-05-03T03:07:53.937Z,10.82
2017-05-03T03:08:34.804Z,10.87
2017-05-03T03:09:15.683Z,10.93
2017-05-03T03:09:56.592Z,10.96
2017-05-03T03:10:37.479Z,10.97
2017-05-03T03:11:18.355Z,10.99
2017-05-03T03:11:59.249Z,11
2017-05-03T03:12:40.127Z,11
2017-05-03T03:13:20.999Z,10.99
2017-05-03T03:14:01.869Z,10.96
2017-05-03T03:14:42.760Z,11.02
2017-05-03T03:15:23.641Z,11.04
2017-05-03T03:16:04.524Z,10.99
2017-05-03T03:16:45.402Z,10.99
2017-05-03T03:17:26.289Z,10.89
2017-05-03T03:18:07.179Z,10.94
2017-05-03T03:18:48.063Z,10.92
2017-05-03T03:19:28.954Z,10.9
2017-05-03T03:20:09.836Z,10.87
2017-05-03T03:20:50.715Z,10.81
2017-05-03T03:21:31.636Z,10.79
2017-05-03T03:22:12.489Z,10.78
2017-05-03T03:22:53.370Z,10.79
2017-05-03T03:23:34.242Z,10.78
2017-05-03T03:24:15.124Z,10.78
2017-05-03T03:24:56.014Z,10.72
2017-05-03T03:25:36.891Z,10.69
2017-05-03T03:26:17.792Z,10.64
2017-05-03T03:26:58.685Z,10.86
2017-05-03T03:27:39.580Z,10.82
2017-05-03T03:28:20.443Z,10.81
2017-05-03T03:29:01.334Z,10.87
2017-05-03T03:29:42.190Z,10.82
2017-05-03T03:30:23.071Z,10.82
2017-05-03T03:31:03.972Z,10.84
2017-05-03T03:31:44.847Z,10.67
2017-05-03T03:32:25.687Z,10.76
2017-05-03T03:33:06.557Z,10.68
2017-05-03T03:33:47.423Z,10.75
2017-05-03T03:34:28.304Z,10.61
2017-05-03T03:35:09.196Z,10.67
2017-05-03T03:35:50.056Z,10.59
2017-05-03T03:36:30.963Z,10.61
2017-05-03T03:37:11.827Z,10.61
2017-05-03T03:37:52.718Z,10.67
2017-05-03T03:38:33.618Z,10.67
2017-05-03T03:39:14.501Z,10.74
2017-05-03T03:39:55.402Z,10.69
2017-05-03T03:40:36.281Z,10.74
2017-05-03T03:41:17.164Z,10.67
2017-05-03T03:41:58.065Z,10.6
2017-05-03T03:42:38.949Z,10.59
2017-05-03T03:43:19.815Z,10.6
2017-05-03T03:44:00.711Z,10.63
2017-05-03T03:44:41.600Z,10.54
2017-05-03T03:45:22.487Z,10.59
2017-05-03T03:46:03.354Z,10.49
2017-05-03T03:46:44.234Z,10.48
2017-05-03T03:47:25.114Z,10.57
2017-05-03T03:48:06.002Z,10.44
2017-05-03T03:48:46.876Z,10.42
2017-05-03T03:49:27.752Z,10.41
2017-05-03T03:50:08.643Z,10.38
2017-05-03T03:50:49.531Z,10.51
2017-05-03T03:51:30.410Z,10.37
2017-05-03T03:52:11.301Z,10.44
2017-05-03T03:52:52.180Z,10.42
2017-05-03T03:53:33.072Z,10.42
2017-05-03T03:54:13.947Z,10.48
2017-05-03T03:54:54.831Z,10.48
2017-05-03T03:55:35.714Z,10.35
2017-05-03T03:56:16.623Z,10.38
2017-05-03T03:56:57.491Z,10.41
2017-05-03T03:57:38.385Z,10.46
2017-05-03T03:58:19.278Z,10.49
2017-05-03T03:59:00.156Z,10.57
2017-05-03T03:59:41.026Z,10.57
2017-05-03T04:00:21.901Z,10.57
2017-05-03T04:01:02.785Z,10.59
2017-05-03T04:01:43.672Z,10.59
2017-05-03T04:02:24.540Z,10.54
2017-05-03T04:03:05.417Z,10.57
2017-05-03T04:03:46.320Z,10.63
2017-05-03T04:04:27.209Z,10.57
2017-05-03T04:05:08.074Z,10.57
2017-05-03T04:05:48.929Z,10.54
2017-05-03T04:06:29.823Z,10.51
2017-05-03T04:07:10.687Z,10.57
2017-05-03T04:07:51.606Z,10.59
2017-05-03T04:08:32.498Z,10.51
2017-05-03T04:09:13.355Z,10.57
2017-05-03T04:09:54.252Z,10.59
2017-05-03T04:10:35.095Z,10.53
2017-05-03T04:11:15.963Z,10.56
2017-05-03T04:11:56.831Z,10.59
2017-05-03T04:12:37.716Z,10.59
2017-05-03T04:13:18.603Z,10.38
2017-05-03T04:13:59.486Z,10.57
2017-05-03T04:14:40.372Z,10.56
2017-05-03T04:15:21.268Z,10.54
2017-05-03T04:16:02.159Z,10.6
2017-05-03T04:16:43.052Z,10.68
2017-05-03T04:17:23.938Z,10.67
2017-05-03T04:18:04.812Z,10.67
2017-05-03T04:18:45.678Z,10.74
2017-05-03T04:19:26.559Z,10.72
2017-05-03T04:20:07.429Z,10.68
2017-05-03T04:20:48.308Z,10.64
2017-05-03T04:21:29.202Z,10.6
2017-05-03T04:22:10.075Z,10.63
2017-05-03T04:22:50.947Z,10.57
2017-05-03T04:23:31.823Z,10.57
2017-05-03T04:24:12.722Z,10.53
2017-05-03T04:24:53.599Z,10.56
2017-05-03T04:25:34.483Z,10.57
2017-05-03T04:26:15.361Z,10.57
2017-05-03T04:26:56.274Z,10.41
2017-05-03T04:27:37.154Z,10.4
2017-05-03T04:28:18.043Z,10.37
2017-05-03T04:28:58.923Z,10.41
2017-05-03T04:29:39.802Z,10.42
2017-05-03T04:30:20.660Z,10.51
2017-05-03T04:31:01.535Z,10.35
2017-05-03T04:31:42.414Z,10.4
2017-05-03T04:32:23.306Z,10.35
2017-05-03T04:33:04.185Z,10.35
2017-05-03T04:33:45.057Z,10.38
2017-05-03T04:34:25.942Z,10.38
2017-05-03T04:35:06.830Z,10.41
2017-05-03T04:35:47.714Z,10.38
2017-05-03T04:36:28.630Z,10.34
2017-05-03T04:37:09.528Z,10.26
2017-05-03T04:37:50.405Z,10.38
2017-05-03T04:38:31.289Z,10.37
2017-05-03T04:39:12.166Z,10.37
2017-05-03T04:39:53.061Z,10.44
2017-05-03T04:40:33.938Z,10.42
2017-05-03T04:41:14.827Z,10.42
2017-05-03T04:41:55.706Z,10.44
2017-05-03T04:42:36.585Z,10.4
2017-05-03T04:43:17.463Z,10.41
2017-05-03T04:43:58.342Z,10.4
2017-05-03T04:44:39.254Z,10.38
2017-05-03T04:45:20.141Z,10.38
2017-05-03T04:46:01.025Z,10.53
2017-05-03T04:46:41.926Z,10.41
2017-05-03T04:47:22.851Z,10.4
2017-05-03T04:48:03.724Z,10.42
2017-05-03T04:48:44.606Z,10.37
2017-05-03T04:49:25.966Z,10.4
2017-05-03T04:50:07.377Z,10.37
2017-05-03T04:50:48.257Z,10.34
2017-05-03T04:51:29.116Z,10.34
2017-05-03T04:52:10.046Z,10.48
2017-05-03T04:52:50.932Z,10.35
2017-05-03T04:53:31.789Z,10.35
2017-05-03T04:54:12.643Z,10.41
2017-05-03T04:54:53.526Z,10.46
2017-05-03T04:55:34.407Z,10.37
2017-05-03T04:56:15.290Z,10.38
2017-05-03T04:56:56.163Z,10.44
2017-05-03T04:57:37.050Z,10.49
2017-05-03T04:58:17.931Z,10.38
2017-05-03T04:58:58.814Z,10.33
2017-05-03T04:59:39.672Z,10.48
2017-05-03T05:00:20.543Z,10.42
2017-05-03T05:01:01.413Z,10.46
2017-05-03T05:01:42.303Z,10.37
2017-05-03T05:02:23.183Z,10.41
2017-05-03T05:03:04.067Z,10.4
2017-05-03T05:03:45.007Z,10.35
2017-05-03T05:04:25.891Z,10.33
2017-05-03T05:05:06.769Z,10.34
2017-05-03T05:05:47.646Z,10.3
2017-05-03T05:06:28.539Z,10.35
2017-05-03T05:07:09.425Z,10.3
2017-05-03T05:07:50.300Z,10.33
2017-05-03T05:08:31.176Z,10.31
2017-05-03T05:09:12.065Z,10.25
2017-05-03T05:09:52.954Z,10.22
2017-05-03T05:10:33.831Z,10.22
2017-05-03T05:11:14.714Z,10.28
2017-05-03T05:11:55.604Z,10.28
2017-05-03T05:12:36.493Z,10.28
2017-05-03T05:13:17.370Z,10.28
2017-05-03T05:13:58.246Z,10.19
2017-05-03T05:14:39.118Z,10.31
2017-05-03T05:15:19.993Z,10.23
2017-05-03T05:16:00.864Z,10.19
2017-05-03T05:16:41.739Z,10.25
2017-05-03T05:17:22.609Z,10.22
2017-05-03T05:18:03.495Z,10.15
2017-05-03T05:18:44.359Z,10.22
2017-05-03T05:19:25.245Z,10.25
2017-05-03T05:20:06.117Z,10.33
2017-05-03T05:20:46.986Z,10.4
2017-05-03T05:21:27.861Z,10.46
2017-05-03T05:22:08.743Z,10.41
2017-05-03T05:22:49.634Z,10.41
2017-05-03T05:23:30.503Z,10.4
2017-05-03T05:24:11.389Z,10.37
2017-05-03T05:24:52.263Z,10.4
2017-05-03T05:25:33.152Z,10.38
2017-05-03T05:26:13.988Z,10.37
2017-05-03T05:26:54.857Z,10.35
2017-05-03T05:27:35.744Z,10.35
2017-05-03T05:28:16.616Z,10.38
2017-05-03T05:28:57.498Z,10.38
2017-05-03T05:29:38.353Z,10.41
2017-05-03T05:30:19.250Z,10.48
2017-05-03T05:31:00.123Z,10.38
2017-05-03T05:31:41.012Z,10.4
2017-05-03T05:32:21.904Z,10.42
2017-05-03T05:33:02.776Z,10.42
2017-05-03T05:33:43.621Z,10.42
2017-05-03T05:34:24.489Z,10.38
2017-05-03T05:35:05.374Z,10.37
2017-05-03T05:35:46.258Z,10.37
2017-05-03T05:36:27.197Z,10.35
2017-05-03T05:37:08.081Z,10.44
2017-05-03T05:37:48.961Z,10.4
2017-05-03T05:38:29.839Z,10.41
2017-05-03T05:39:10.720Z,10.44
2017-05-03T05:39:51.646Z,10.56
2017-05-03T05:40:32.526Z,10.54
2017-05-03T05:41:13.414Z,10.53
2017-05-03T05:41:54.299Z,10.51
2017-05-03T05:42:35.181Z,10.48
2017-05-03T05:43:16.057Z,10.53
2017-05-03T05:43:56.938Z,10.59
2017-05-03T05:44:37.823Z,10.53
2017-05-03T05:45:18.697Z,10.49
2017-05-03T05:45:59.574Z,10.6
2017-05-03T05:46:40.461Z,10.6
2017-05-03T05:47:21.354Z,10.57
2017-05-03T05:48:02.235Z,10.64
2017-05-03T05:48:43.113Z,10.56
2017-05-03T05:49:23.972Z,10.71
2017-05-03T05:50:04.842Z,10.69
2017-05-03T05:50:45.737Z,10.69
2017-05-03T05:51:26.627Z,10.76
2017-05-03T05:52:07.488Z,10.74
2017-05-03T05:52:48.370Z,10.87
2017-05-03T05:53:29.254Z,10.79
2017-05-03T05:54:10.139Z,10.89
2017-05-03T05:54:51.014Z,10.9
2017-05-03T05:55:31.893Z,10.79
2017-05-03T05:56:12.775Z,10.82
2017-05-03T05:56:53.674Z,10.78
2017-05-03T05:57:34.551Z,10.72
2017-05-03T05:58:15.422Z,10.67
2017-05-03T05:58:56.294Z,10.68
2017-05-03T05:59:37.162Z,10.71
2017-05-03T06:00:18.042Z,10.72
2017-05-03T06:00:58.940Z,10.71
2017-05-03T06:01:39.819Z,10.75
2017-05-03T06:02:20.707Z,10.72
2017-05-03T06:03:01.598Z,10.68
2017-05-03T06:03:42.481Z,10.75
2017-05-03T06:04:23.361Z,10.75
2017-05-03T06:05:04.277Z,10.67
2017-05-03T06:05:45.160Z,10.64
2017-05-03T06:06:26.045Z,10.67
2017-05-03T06:07:06.937Z,10.61
2017-05-03T06:07:47.823Z,10.67
2017-05-03T06:08:28.708Z,10.6
2017-05-03T06:09:09.595Z,10.51
2017-05-03T06:09:50.480Z,10.54
2017-05-03T06:10:31.388Z,10.53
2017-05-03T06:11:12.271Z,10.44
2017-05-03T06:11:53.162Z,10.59
2017-05-03T06:12:34.035Z,10.63
2017-05-03T06:13:14.909Z,10.68
2017-05-03T06:13:55.797Z,10.69
2017-05-03T06:14:36.712Z,10.76
2017-05-03T06:15:17.587Z,10.78
2017-05-03T06:15:58.474Z,10.79
2017-05-03T06:16:39.339Z,10.79
2017-05-03T06:17:20.224Z,10.79
2017-05-03T06:18:01.106Z,10.86
2017-05-03T06:18:42.039Z,10.84
2017-05-03T06:19:22.919Z,10.86
2017-05-03T06:20:03.790Z,10.92
2017-05-03T06:20:44.671Z,10.86
2017-05-03T06:21:25.559Z,10.79
2017-05-03T06:22:06.450Z,10.87
2017-05-03T06:22:47.331Z,10.79
2017-05-03T06:23:28.219Z,10.82
2017-05-03T06:24:09.103Z,10.82
2017-05-03T06:24:49.994Z,10.92
2017-05-03T06:25:30.887Z,10.97
2017-05-03T06:26:11.778Z,10.9
2017-05-03T06:26:52.666Z,10.76
2017-05-03T06:27:33.579Z,10.9
2017-05-03T06:28:14.472Z,10.96
2017-05-03T06:28:55.352Z,10.87
2017-05-03T06:29:36.257Z,10.82
2017-05-03T06:30:17.132Z,10.96
2017-05-03T06:30:58.022Z,10.96
2017-05-03T06:31:38.894Z,10.99
2017-05-03T06:32:19.773Z,11.08
2017-05-03T06:33:00.640Z,11.05
2017-05-03T06:33:41.523Z,11.07
2017-05-03T06:34:22.395Z,11.08
2017-05-03T06:35:03.274Z,11
2017-05-03T06:35:44.153Z,11.05
2017-05-03T06:36:25.033Z,11
2017-05-03T06:37:05.954Z,11.12
2017-05-03T06:37:46.824Z,11.1
2017-05-03T06:38:27.704Z,11.18
2017-05-03T06:39:08.594Z,11.1
2017-05-03T06:39:49.476Z,11.22
2017-05-03T06:40:30.356Z,11.12
2017-05-03T06:41:11.240Z,11.1
2017-05-03T06:41:52.141Z,11.14
2017-05-03T06:42:33.020Z,11.15
2017-05-03T06:43:13.897Z,11.11
2017-05-03T06:43:54.791Z,11.11
2017-05-03T06:44:35.678Z,11.11
2017-05-03T06:45:16.554Z,11.12
2017-05-03T06:45:57.455Z,11.07
2017-05-03T06:46:38.335Z,11.12
2017-05-03T06:47:19.211Z,11.22
2017-05-03T06:48:00.100Z,11.07
2017-05-03T06:48:40.991Z,11.07
2017-05-03T06:49:21.884Z,11.17
2017-05-03T06:50:02.764Z,11.14
2017-05-03T06:50:43.673Z,11.12
2017-05-03T06:51:24.557Z,11.07
2017-05-03T06:52:05.440Z,11.14
2017-05-03T06:52:46.326Z,11.22
2017-05-03T06:53:27.217Z,11.19
2017-05-03T06:54:08.114Z,11.19
2017-05-03T06:54:48.972Z,11.25
2017-05-03T06:55:29.862Z,11.29
2017-05-03T06:56:10.746Z,11.17
2017-05-03T06:56:51.614Z,11.19
2017-05-03T06:57:32.514Z,11.23
2017-05-03T06:58:13.397Z,11.17
2017-05-03T06:58:54.273Z,11.27
2017-05-03T06:59:35.165Z,11.33
2017-05-03T07:00:16.045Z,11.41
2017-05-03T07:00:56.931Z,11.41
2017-05-03T07:01:37.816Z,11.54
2017-05-03T07:02:18.706Z,11.55
2017-05-03T07:02:59.588Z,11.6
2017-05-03T07:03:40.484Z,11.69
2017-05-03T07:04:21.369Z,11.7
2017-05-03T07:05:02.261Z,11.77
2017-05-03T07:05:43.144Z,11.7
2017-05-03T07:06:24.066Z,11.69
2017-05-03T07:07:04.956Z,11.68
2017-05-03T07:07:45.845Z,11.8
2017-05-03T07:08:26.725Z,11.81
2017-05-03T07:09:07.604Z,11.87
2017-05-03T07:09:48.488Z,11.99
2017-05-03T07:10:29.376Z,12
2017-05-03T07:11:10.272Z,11.87
2017-05-03T07:11:51.145Z,11.87
2017-05-03T07:12:32.038Z,11.87
2017-05-03T07:13:12.937Z,11.95
2017-05-03T07:13:53.809Z,11.87
2017-05-03T07:14:34.701Z,11.86
2017-05-03T07:15:15.640Z,11.7
2017-05-03T07:15:56.524Z,11.69
2017-05-03T07:16:37.415Z,11.68
2017-05-03T07:17:18.302Z,11.6
2017-05-03T07:17:59.186Z,11.52
2017-05-03T07:18:40.069Z,11.52
2017-05-03T07:19:20.955Z,11.51
2017-05-03T07:20:01.838Z,11.59
2017-05-03T07:20:42.729Z,11.54
2017-05-03T07:21:23.613Z,11.65
2017-05-03T07:22:04.488Z,11.72
2017-05-03T07:22:45.370Z,11.83
2017-05-03T07:23:26.249Z,11.83
2017-05-03T07:24:07.145Z,11.87
2017-05-03T07:24:48.038Z,12
2017-05-03T07:25:28.916Z,12.12
2017-05-03T07:26:09.810Z,12.06
2017-05-03T07:26:50.722Z,12.09
2017-05-03T07:27:31.611Z,12.12
2017-05-03T07:28:12.488Z,12.1
2017-05-03T07:28:53.392Z,12.15
2017-05-03T07:29:34.280Z,12.27
2017-05-03T07:30:15.145Z,12.31
2017-05-03T07:30:56.059Z,12.36
2017-05-03T07:31:36.927Z,12.24
2017-05-03T07:32:17.800Z,12.24
2017-05-03T07:32:58.697Z,12.36
2017-05-03T07:33:39.580Z,12.45
2017-05-03T07:34:20.465Z,12.47
2017-05-03T07:35:01.350Z,12.6
2017-05-03T07:35:42.237Z,12.57
2017-05-03T07:36:23.117Z,12.58
2017-05-03T07:37:04.007Z,12.61
2017-05-03T07:37:44.900Z,12.55
2017-05-03T07:38:25.790Z,12.54
2017-05-03T07:39:06.671Z,12.7
2017-05-03T07:39:47.570Z,12.62
2017-05-03T07:40:28.463Z,12.68
2017-05-03T07:41:09.346Z,12.72
2017-05-03T07:41:50.209Z,12.62
2017-05-03T07:42:31.096Z,12.54
2017-05-03T07:43:12.015Z,12.42
2017-05-03T07:43:52.873Z,12.46
2017-05-03T07:44:33.756Z,12.5
2017-05-03T07:45:14.657Z,12.49
2017-05-03T07:45:55.550Z,12.64
2017-05-03T07:46:36.423Z,12.7
2017-05-03T07:47:17.311Z,12.6
2017-05-03T07:47:58.207Z,12.65
2017-05-03T07:48:39.089Z,12.78
2017-05-03T07:49:19.980Z,12.78
2017-05-03T07:50:00.867Z,12.62
2017-05-03T07:50:41.754Z,12.64
2017-05-03T07:51:22.633Z,12.7
2017-05-03T07:52:03.521Z,12.67
2017-05-03T07:52:44.416Z,12.7
2017-05-03T07:53:25.287Z,12.64
2017-05-03T07:54:06.164Z,12.62
2017-05-03T07:54:47.049Z,12.7
2017-05-03T07:55:27.945Z,12.8
2017-05-03T07:56:08.816Z,12.87
2017-05-03T07:56:49.697Z,12.91
2017-05-03T07:57:30.576Z,12.8
2017-05-03T07:58:11.486Z,12.76
2017-05-03T07:58:52.373Z,12.83
2017-05-03T07:59:33.265Z,12.86
2017-05-03T08:00:14.143Z,12.91
2017-05-03T08:00:55.032Z,13.03
2017-05-03T08:01:35.935Z,13.15
2017-05-03T08:02:16.823Z,13.16
2017-05-03T08:02:57.699Z,13.13
2017-05-03T08:03:38.571Z,13.13
2017-05-03T08:04:19.461Z,13.18
2017-05-03T08:05:00.343Z,13.23
2017-05-03T08:05:41.226Z,13.15
2017-05-03T08:06:22.104Z,13.15
2017-05-03T08:07:02.987Z,13.25
2017-05-03T08:07:43.878Z,13.3
2017-05-03T08:08:24.759Z,13.31
2017-05-03T08:09:05.677Z,13.3
2017-05-03T08:09:46.585Z,13.27
2017-05-03T08:10:27.491Z,13.23
2017-05-03T08:11:08.387Z,13.15
2017-05-03T08:11:49.272Z,13.28
2017-05-03T08:12:30.138Z,13.37
2017-05-03T08:14:08.556Z,13.37
2017-05-03T08:14:49.439Z,13.37
2017-05-03T08:15:30.326Z,13.33
2017-05-03T08:16:11.214Z,13.33
2017-05-03T08:16:52.075Z,13.35
2017-05-03T08:17:32.956Z,13.15
2017-05-03T08:18:13.859Z,13.33
2017-05-03T08:18:54.748Z,13.31
2017-05-03T08:19:35.635Z,13.27
2017-05-03T08:20:16.522Z,13.25
2017-05-03T08:20:57.409Z,13.37
2017-05-03T08:21:38.287Z,13.23
2017-05-03T08:22:19.184Z,13.28
2017-05-03T08:23:00.070Z,13.33
2017-05-03T08:23:40.991Z,13.33
2017-05-03T08:24:21.847Z,13.3
2017-05-03T08:25:02.732Z,13.42
2017-05-03T08:25:43.613Z,13.44
2017-05-03T08:26:24.491Z,13.57
2017-05-03T08:27:05.384Z,13.59
2017-05-03T08:27:46.271Z,13.63
2017-05-03T08:28:27.152Z,13.49
2017-05-03T08:29:08.032Z,13.52
2017-05-03T08:29:48.919Z,13.49
2017-05-03T08:30:29.808Z,13.6
2017-05-03T08:31:10.701Z,13.5
2017-05-03T08:31:51.578Z,13.52
2017-05-03T08:32:32.469Z,13.68
2017-05-03T08:33:13.344Z,13.56
2017-05-03T08:33:54.217Z,13.46
2017-05-03T08:34:35.087Z,13.53
2017-05-03T08:35:15.956Z,13.52
2017-05-03T08:35:56.828Z,13.54
2017-05-03T08:36:37.709Z,13.56
2017-05-03T08:37:18.588Z,13.67
2017-05-03T08:37:59.451Z,13.65
2017-05-03T08:38:40.341Z,13.68
2017-05-03T08:39:21.232Z,13.67
2017-05-03T08:40:02.119Z,13.65
2017-05-03T08:40:42.991Z,13.6
2017-05-03T08:41:23.853Z,13.62
2017-05-03T08:42:04.744Z,13.67
2017-05-03T08:42:45.623Z,13.74
2017-05-03T08:43:26.508Z,13.56
2017-05-03T08:44:07.414Z,13.39
2017-05-03T08:44:48.299Z,13.47
2017-05-03T08:45:29.167Z,13.53
2017-05-03T08:46:10.042Z,13.65
2017-05-03T08:46:50.932Z,13.74
2017-05-03T08:47:31.829Z,13.71
2017-05-03T08:48:12.740Z,13.77
2017-05-03T08:48:53.612Z,13.92
2017-05-03T08:49:34.486Z,14
2017-05-03T08:50:15.374Z,14.22
2017-05-03T08:50:56.264Z,14.26